Aberdeen, Pennsylvania
Current Conditions -  °F | °C
As of 7:56 AM on Monday 20 Oct 2014 (Local Time) from KMDT Reporting Station
Clear Clear  
Wind Chill: 40°   Ceiling: Unl
Heat Index: 40°   Visibility: 10mi
Dew Point: 36°   Wind: 3mph
Humidity: 86%   Direction: 90°E
Pressure: 30.1"   Gusts: NA
Location:  40.1674°N, 76.6045°W
Report Text: KMDT 201156Z 09003KT 10SM CLR 04/02 A3010 RMK AO2 SLP194 T00440022 10061 20022 53005 $
Loading
Personal Weather Stations






























Interactive Weather Map
Tropical Storm Tracking
New forecast layout! Learn more

10-Day Weather Forecast

Advertisements
Track Severe Weather on mobile